sensor_id;sensor_type;location;lat;lon;timestamp;temperature;humidity
71297;SHT31;59082;50.658;4.608;2022-10-16T06:38:34;11.34;99.99
71297;SHT31;59082;50.658;4.608;2022-10-16T06:41:00;11.32;99.99
71297;SHT31;59082;50.658;4.608;2022-10-16T06:43:26;11.32;99.99
71297;SHT31;59082;50.658;4.608;2022-10-16T06:45:56;11.28;99.99
71297;SHT31;59082;50.658;4.608;2022-10-16T06:48:23;11.32;99.99
71297;SHT31;59082;50.658;4.608;2022-10-16T06:51:06;11.34;99.99
71297;SHT31;59082;50.658;4.608;2022-10-16T06:53:35;11.44;99.99
71297;SHT31;59082;50.658;4.608;2022-10-16T06:56:11;11.41;99.99
71297;SHT31;59082;50.658;4.608;2022-10-16T06:58:37;11.44;99.99
71297;SHT31;59082;50.658;4.608;2022-10-16T07:01:04;11.44;99.99
71297;SHT31;59082;50.658;4.608;2022-10-16T07:03:30;11.45;99.99
71297;SHT31;59082;50.658;4.608;2022-10-16T07:05:56;11.50;99.99
71297;SHT31;59082;50.658;4.608;2022-10-16T07:08:22;11.52;99.99
71297;SHT31;59082;50.658;4.608;2022-10-16T07:10:47;11.57;99.99
71297;SHT31;59082;50.658;4.608;2022-10-16T07:13:13;11.66;99.99
71297;SHT31;59082;50.658;4.608;2022-10-16T07:15:40;11.72;99.99
71297;SHT31;59082;50.658;4.608;2022-10-16T07:18:06;11.76;99.99
71297;SHT31;59082;50.658;4.608;2022-10-16T07:20:32;11.87;99.99
71297;SHT31;59082;50.658;4.608;2022-10-16T07:22:58;11.93;99.99
71297;SHT31;59082;50.658;4.608;2022-10-16T07:25:23;11.96;99.99
71297;SHT31;59082;50.658;4.608;2022-10-16T07:27:49;12.07;99.99
71297;SHT31;59082;50.658;4.608;2022-10-16T07:30:15;12.10;99.99
71297;SHT31;59082;50.658;4.608;2022-10-16T07:32:41;12.24;99.99
71297;SHT31;59082;50.658;4.608;2022-10-16T07:35:07;12.33;99.99
71297;SHT31;59082;50.658;4.608;2022-10-16T07:37:32;12.34;99.99
71297;SHT31;59082;50.658;4.608;2022-10-16T07:39:57;12.42;99.99
71297;SHT31;59082;50.658;4.608;2022-10-16T07:42:23;12.51;99.99
71297;SHT31;59082;50.658;4.608;2022-10-16T07:44:48;12.60;99.99
71297;SHT31;59082;50.658;4.608;2022-10-16T07:47:14;12.72;99.99
71297;SHT31;59082;50.658;4.608;2022-10-16T07:49:39;12.93;99.99
71297;SHT31;59082;50.658;4.608;2022-10-16T07:52:05;13.06;99.99
71297;SHT31;59082;50.658;4.608;2022-10-16T07:54:30;13.22;99.99
71297;SHT31;59082;50.658;4.608;2022-10-16T07:56:56;13.37;99.99
71297;SHT31;59082;50.658;4.608;2022-10-16T07:59:21;13.63;99.99
71297;SHT31;59082;50.658;4.608;2022-10-16T08:01:49;13.74;99.99
71297;SHT31;59082;50.658;4.608;2022-10-16T08:04:15;13.89;99.99
71297;SHT31;59082;50.658;4.608;2022-10-16T08:06:41;14.04;99.99
71297;SHT31;59082;50.658;4.608;2022-10-16T08:09:08;13.95;99.99
71297;SHT31;59082;50.658;4.608;2022-10-16T08:11:33;13.95;99.99
71297;SHT31;59082;50.658;4.608;2022-10-16T08:13:59;14.02;99.99
71297;SHT31;59082;50.658;4.608;2022-10-16T08:16:25;14.12;99.99
71297;SHT31;59082;50.658;4.608;2022-10-16T08:18:50;14.26;99.99
71297;SHT31;59082;50.658;4.608;2022-10-16T08:21:21;14.71;99.99
71297;SHT31;59082;50.658;4.608;2022-10-16T08:23:49;15.15;99.99
71297;SHT31;59082;50.658;4.608;2022-10-16T08:26:15;15.09;99.99
71297;SHT31;59082;50.658;4.608;2022-10-16T08:28:40;15.45;99.99
71297;SHT31;59082;50.658;4.608;2022-10-16T08:31:12;15.74;99.99
71297;SHT31;59082;50.658;4.608;2022-10-16T08:33:38;16.07;99.99
71297;SHT31;59082;50.658;4.608;2022-10-16T08:36:05;16.58;98.76
71297;SHT31;59082;50.658;4.608;2022-10-16T08:38:31;17.04;97.58
71297;SHT31;59082;50.658;4.608;2022-10-16T08:49:14;18.98;92.53
71297;SHT31;59082;50.658;4.608;2022-10-16T08:51:40;19.40;91.60
71297;SHT31;59082;50.658;4.608;2022-10-16T08:56:46;19.19;92.59
71297;SHT31;59082;50.658;4.608;2022-10-16T08:59:13;20.05;89.76
71297;SHT31;59082;50.658;4.608;2022-10-16T09:01:44;20.60;88.03
71297;SHT31;59082;50.658;4.608;2022-10-16T09:04:43;20.71;87.29
71297;SHT31;59082;50.658;4.608;2022-10-16T09:09:47;20.84;86.61
71297;SHT31;59082;50.658;4.608;2022-10-16T09:12:23;21.02;86.52
71297;SHT31;59082;50.658;4.608;2022-10-16T09:20:18;22.04;83.33
71297;SHT31;59082;50.658;4.608;2022-10-16T09:22:44;22.21;81.41
71297;SHT31;59082;50.658;4.608;2022-10-16T09:25:16;21.93;83.42
71297;SHT31;59082;50.658;4.608;2022-10-16T09:27:48;21.38;82.28
71297;SHT31;59082;50.658;4.608;2022-10-16T09:30:20;22.09;79.73
71297;SHT31;59082;50.658;4.608;2022-10-16T09:32:50;21.84;81.91
71297;SHT31;59082;50.658;4.608;2022-10-16T09:35:22;22.08;79.95
71297;SHT31;59082;50.658;4.608;2022-10-16T09:37:51;22.79;79.16
71297;SHT31;59082;50.658;4.608;2022-10-16T09:40:45;22.29;79.85
71297;SHT31;59082;50.658;4.608;2022-10-16T09:48:48;23.24;76.49
71297;SHT31;59082;50.658;4.608;2022-10-16T09:51:35;24.12;76.52
71297;SHT31;59082;50.658;4.608;2022-10-16T09:56:37;24.60;73.91
71297;SHT31;59082;50.658;4.608;2022-10-16T09:59:14;24.95;74.23
71297;SHT31;59082;50.658;4.608;2022-10-16T10:01:48;23.55;77.49
71297;SHT31;59082;50.658;4.608;2022-10-16T10:04:16;23.59;76.46
71297;SHT31;59082;50.658;4.608;2022-10-16T10:06:49;23.42;75.52
71297;SHT31;59082;50.658;4.608;2022-10-16T10:09:26;22.90;77.28
71297;SHT31;59082;50.658;4.608;2022-10-16T10:11:57;22.83;77.20
71297;SHT31;59082;50.658;4.608;2022-10-16T10:16:53;23.85;76.41
71297;SHT31;59082;50.658;4.608;2022-10-16T10:19:27;23.00;76.39
71297;SHT31;59082;50.658;4.608;2022-10-16T10:21:52;23.18;76.07
71297;SHT31;59082;50.658;4.608;2022-10-16T10:24:19;24.27;74.72
71297;SHT31;59082;50.658;4.608;2022-10-16T10:27:13;24.95;73.56
71297;SHT31;59082;50.658;4.608;2022-10-16T10:29:49;25.41;71.72
71297;SHT31;59082;50.658;4.608;2022-10-16T10:32:31;25.95;71.07
71297;SHT31;59082;50.658;4.608;2022-10-16T10:45:59;26.53;68.73
71297;SHT31;59082;50.658;4.608;2022-10-16T10:48:47;25.46;68.39
71297;SHT31;59082;50.658;4.608;2022-10-16T10:51:28;24.65;71.57
71297;SHT31;59082;50.658;4.608;2022-10-16T11:02:00;26.37;68.89
71297;SHT31;59082;50.658;4.608;2022-10-16T11:07:07;27.84;65.78
71297;SHT31;59082;50.658;4.608;2022-10-16T11:09:38;28.92;63.46
71297;SHT31;59082;50.658;4.608;2022-10-16T11:12:11;29.34;63.17
71297;SHT31;59082;50.658;4.608;2022-10-16T11:14:53;29.39;63.33
71297;SHT31;59082;50.658;4.608;2022-10-16T11:17:42;29.50;61.75
71297;SHT31;59082;50.658;4.608;2022-10-16T11:23:02;30.43;61.74
71297;SHT31;59082;50.658;4.608;2022-10-16T11:25:32;29.27;62.18
71297;SHT31;59082;50.658;4.608;2022-10-16T11:30:51;26.16;67.21
71297;SHT31;59082;50.658;4.608;2022-10-16T11:39:02;29.79;62.82
71297;SHT31;59082;50.658;4.608;2022-10-16T11:49:30;26.84;66.47
71297;SHT31;59082;50.658;4.608;2022-10-16T11:54:57;25.56;68.53
71297;SHT31;59082;50.658;4.608;2022-10-16T11:57:28;24.95;70.69
71297;SHT31;59082;50.658;4.608;2022-10-16T12:00:10;25.50;69.86
71297;SHT31;59082;50.658;4.608;2022-10-16T12:03:02;25.06;71.57
71297;SHT31;59082;50.658;4.608;2022-10-16T12:08:35;24.16;71.55
71297;SHT31;59082;50.658;4.608;2022-10-16T12:11:24;24.06;71.50
71297;SHT31;59082;50.658;4.608;2022-10-16T12:14:17;23.85;71.56
71297;SHT31;59082;50.658;4.608;2022-10-16T12:17:01;23.70;72.70
71297;SHT31;59082;50.658;4.608;2022-10-16T12:19:29;23.59;72.56
71297;SHT31;59082;50.658;4.608;2022-10-16T12:22:01;23.63;74.49
71297;SHT31;59082;50.658;4.608;2022-10-16T12:26:59;23.32;74.07
71297;SHT31;59082;50.658;4.608;2022-10-16T12:29:36;23.10;72.80
71297;SHT31;59082;50.658;4.608;2022-10-16T12:32:04;22.25;77.44
71297;SHT31;59082;50.658;4.608;2022-10-16T12:34:40;21.94;76.51
71297;SHT31;59082;50.658;4.608;2022-10-16T12:39:38;22.22;74.45
71297;SHT31;59082;50.658;4.608;2022-10-16T12:42:17;22.01;76.64
71297;SHT31;59082;50.658;4.608;2022-10-16T12:44:45;21.86;78.72
71297;SHT31;59082;50.658;4.608;2022-10-16T12:47:22;21.77;78.77
71297;SHT31;59082;50.658;4.608;2022-10-16T12:49:53;21.38;78.30
71297;SHT31;59082;50.658;4.608;2022-10-16T12:52:34;21.18;78.10
71297;SHT31;59082;50.658;4.608;2022-10-16T12:55:00;21.11;79.00
71297;SHT31;59082;50.658;4.608;2022-10-16T12:57:41;21.15;80.21
71297;SHT31;59082;50.658;4.608;2022-10-16T13:25:39;20.25;84.07
71297;SHT31;59082;50.658;4.608;2022-10-16T13:28:10;20.51;81.47
71297;SHT31;59082;50.658;4.608;2022-10-16T13:30:40;20.41;79.85
71297;SHT31;59082;50.658;4.608;2022-10-16T13:33:15;20.77;79.33
71297;SHT31;59082;50.658;4.608;2022-10-16T13:35:50;21.70;78.93
71297;SHT31;59082;50.658;4.608;2022-10-16T13:38:30;22.21;77.61
71297;SHT31;59082;50.658;4.608;2022-10-16T13:41:01;22.04;78.50
71297;SHT31;59082;50.658;4.608;2022-10-16T13:43:42;21.63;79.41
71297;SHT31;59082;50.658;4.608;2022-10-16T13:46:17;21.16;80.72
71297;SHT31;59082;50.658;4.608;2022-10-16T13:48:59;20.88;80.33
71297;SHT31;59082;50.658;4.608;2022-10-16T13:51:27;20.81;81.21
71297;SHT31;59082;50.658;4.608;2022-10-16T13:53:55;20.67;81.48
71297;SHT31;59082;50.658;4.608;2022-10-16T13:56:29;20.47;80.48
71297;SHT31;59082;50.658;4.608;2022-10-16T13:59:07;20.47;82.48
71297;SHT31;59082;50.658;4.608;2022-10-16T14:01:47;20.33;82.66
71297;SHT31;59082;50.658;4.608;2022-10-16T14:04:14;20.34;82.64
71297;SHT31;59082;50.658;4.608;2022-10-16T14:06:43;20.40;82.69
71297;SHT31;59082;50.658;4.608;2022-10-16T14:11:51;20.00;84.36
71297;SHT31;59082;50.658;4.608;2022-10-16T14:14:19;20.13;84.36
71297;SHT31;59082;50.658;4.608;2022-10-16T14:16:44;19.95;84.87
71297;SHT31;59082;50.658;4.608;2022-10-16T14:19:30;19.82;86.01
71297;SHT31;59082;50.658;4.608;2022-10-16T14:21:58;19.89;85.73
71297;SHT31;59082;50.658;4.608;2022-10-16T14:26:56;20.22;85.02
71297;SHT31;59082;50.658;4.608;2022-10-16T14:29:25;20.54;83.95
71297;SHT31;59082;50.658;4.608;2022-10-16T14:31:56;20.51;83.58
71297;SHT31;59082;50.658;4.608;2022-10-16T14:34:33;20.73;83.36
71297;SHT31;59082;50.658;4.608;2022-10-16T14:37:01;20.68;83.77
71297;SHT31;59082;50.658;4.608;2022-10-16T14:39:33;20.74;83.19
71297;SHT31;59082;50.658;4.608;2022-10-16T14:41:59;20.56;84.42
71297;SHT31;59082;50.658;4.608;2022-10-16T14:44:32;20.40;83.80
71297;SHT31;59082;50.658;4.608;2022-10-16T14:47:07;20.48;85.40
71297;SHT31;59082;50.658;4.608;2022-10-16T14:49:33;20.22;86.23
71297;SHT31;59082;50.658;4.608;2022-10-16T14:51:58;20.09;85.46
71297;SHT31;59082;50.658;4.608;2022-10-16T14:54:24;20.06;84.97
71297;SHT31;59082;50.658;4.608;2022-10-16T14:56:56;19.86;85.46
71297;SHT31;59082;50.658;4.608;2022-10-16T14:59:30;19.95;85.86
71297;SHT31;59082;50.658;4.608;2022-10-16T15:01:56;19.92;86.25
71297;SHT31;59082;50.658;4.608;2022-10-16T15:04:22;19.71;87.01
71297;SHT31;59082;50.658;4.608;2022-10-16T15:06:48;19.71;87.58
71297;SHT31;59082;50.658;4.608;2022-10-16T15:09:14;19.61;88.22
71297;SHT31;59082;50.658;4.608;2022-10-16T15:11:39;19.50;88.75
71297;SHT31;59082;50.658;4.608;2022-10-16T15:14:05;19.33;87.71
71297;SHT31;59082;50.658;4.608;2022-10-16T15:16:31;19.23;88.70
71297;SHT31;59082;50.658;4.608;2022-10-16T15:18:57;19.10;90.20
71297;SHT31;59082;50.658;4.608;2022-10-16T15:21:31;18.81;90.75
71297;SHT31;59082;50.658;4.608;2022-10-16T15:23:58;18.57;92.22
71297;SHT31;59082;50.658;4.608;2022-10-16T15:26:25;18.55;91.48
71297;SHT31;59082;50.658;4.608;2022-10-16T15:28:51;18.49;91.63
71297;SHT31;59082;50.658;4.608;2022-10-16T15:31:16;18.43;91.90
71297;SHT31;59082;50.658;4.608;2022-10-16T15:33:42;18.37;92.17
71297;SHT31;59082;50.658;4.608;2022-10-16T15:36:08;18.26;92.46
71297;SHT31;59082;50.658;4.608;2022-10-16T15:38:34;18.17;92.04
71297;SHT31;59082;50.658;4.608;2022-10-16T15:41:00;18.13;92.60
71297;SHT31;59082;50.658;4.608;2022-10-16T15:43:26;18.07;92.21
71297;SHT31;59082;50.658;4.608;2022-10-16T15:46:04;17.99;92.77
71297;SHT31;59082;50.658;4.608;2022-10-16T15:48:31;17.93;92.50
71297;SHT31;59082;50.658;4.608;2022-10-16T15:50:57;17.89;92.78
71297;SHT31;59082;50.658;4.608;2022-10-16T15:53:23;17.73;93.13
71297;SHT31;59082;50.658;4.608;2022-10-16T15:55:48;17.68;93.03
71297;SHT31;59082;50.658;4.608;2022-10-16T15:58:14;17.61;94.13
71297;SHT31;59082;50.658;4.608;2022-10-16T16:00:40;17.58;93.79
71297;SHT31;59082;50.658;4.608;2022-10-16T16:03:08;17.52;93.73
71297;SHT31;59082;50.658;4.608;2022-10-16T16:05:37;17.52;94.13
71297;SHT31;59082;50.658;4.608;2022-10-16T16:08:03;17.56;94.32
71297;SHT31;59082;50.658;4.608;2022-10-16T16:10:28;17.48;94.17
71297;SHT31;59082;50.658;4.608;2022-10-16T16:12:54;17.39;94.30
71297;SHT31;59082;50.658;4.608;2022-10-16T16:15:20;17.35;94.40
71297;SHT31;59082;50.658;4.608;2022-10-16T16:17:46;17.31;94.78
71297;SHT31;59082;50.658;4.608;2022-10-16T16:20:12;17.31;95.04
71297;SHT31;59082;50.658;4.608;2022-10-16T16:22:39;17.25;96.16
71297;SHT31;59082;50.658;4.608;2022-10-16T16:25:05;17.20;95.91
71297;SHT31;59082;50.658;4.608;2022-10-16T16:27:31;17.17;96.03
71297;SHT31;59082;50.658;4.608;2022-10-16T16:30:00;17.13;95.84
71297;SHT31;59082;50.658;4.608;2022-10-16T16:32:26;17.04;95.19
71297;SHT31;59082;50.658;4.608;2022-10-16T16:34:51;17.00;96.65
71297;SHT31;59082;50.658;4.608;2022-10-16T16:37:17;17.03;96.90
71297;SHT31;59082;50.658;4.608;2022-10-16T16:39:43;16.93;97.05
71297;SHT31;59082;50.658;4.608;2022-10-16T16:42:10;16.96;97.00
71297;SHT31;59082;50.658;4.608;2022-10-16T16:44:36;16.93;96.29
71297;SHT31;59082;50.658;4.608;2022-10-16T16:47:05;16.93;95.83
71297;SHT31;59082;50.658;4.608;2022-10-16T16:49:37;16.90;95.80
71297;SHT31;59082;50.658;4.608;2022-10-16T16:52:02;16.90;95.90
71297;SHT31;59082;50.658;4.608;2022-10-16T16:54:28;16.88;95.73
71297;SHT31;59082;50.658;4.608;2022-10-16T16:56:54;16.81;96.04
71297;SHT31;59082;50.658;4.608;2022-10-16T16:59:20;16.77;97.23
71297;SHT31;59082;50.658;4.608;2022-10-16T17:01:47;16.75;97.73
71297;SHT31;59082;50.658;4.608;2022-10-16T17:04:14;16.76;98.19
71297;SHT31;59082;50.658;4.608;2022-10-16T17:06:44;16.70;99.99
71297;SHT31;59082;50.658;4.608;2022-10-16T17:09:10;16.67;99.99
71297;SHT31;59082;50.658;4.608;2022-10-16T17:11:38;16.63;99.99
71297;SHT31;59082;50.658;4.608;2022-10-16T17:14:06;16.56;99.99
71297;SHT31;59082;50.658;4.608;2022-10-16T17:16:34;16.52;99.99
71297;SHT31;59082;50.658;4.608;2022-10-16T17:19:02;16.36;99.99
71297;SHT31;59082;50.658;4.608;2022-10-16T17:21:28;16.26;99.99
71297;SHT31;59082;50.658;4.608;2022-10-16T17:23:55;16.22;99.99
71297;SHT31;59082;50.658;4.608;2022-10-16T17:26:22;16.18;99.99
71297;SHT31;59082;50.658;4.608;2022-10-16T17:28:54;16.07;99.99
71297;SHT31;59082;50.658;4.608;2022-10-16T17:31:24;16.01;99.99
71297;SHT31;59082;50.658;4.608;2022-10-16T17:33:50;15.97;99.99
71297;SHT31;59082;50.658;4.608;2022-10-16T17:36:17;15.91;99.99
71297;SHT31;59082;50.658;4.608;2022-10-16T17:38:44;15.83;99.99
71297;SHT31;59082;50.658;4.608;2022-10-16T17:41:18;15.81;99.99
71297;SHT31;59082;50.658;4.608;2022-10-16T17:43:44;15.79;99.99
71297;SHT31;59082;50.658;4.608;2022-10-16T17:46:12;15.81;99.99
71297;SHT31;59082;50.658;4.608;2022-10-16T17:48:39;15.76;99.99
71297;SHT31;59082;50.658;4.608;2022-10-16T17:51:07;15.70;99.99
71297;SHT31;59082;50.658;4.608;2022-10-16T17:53:33;15.69;99.99
71297;SHT31;59082;50.658;4.608;2022-10-16T17:56:16;15.62;99.99
71297;SHT31;59082;50.658;4.608;2022-10-16T17:58:46;15.62;99.99
71297;SHT31;59082;50.658;4.608;2022-10-16T18:01:20;15.59;99.99
71297;SHT31;59082;50.658;4.608;2022-10-16T18:04:08;15.57;99.99
71297;SHT31;59082;50.658;4.608;2022-10-16T18:06:36;15.47;99.99
71297;SHT31;59082;50.658;4.608;2022-10-16T18:09:03;15.45;99.99
71297;SHT31;59082;50.658;4.608;2022-10-16T18:11:29;15.43;99.99
71297;SHT31;59082;50.658;4.608;2022-10-16T18:13:56;15.45;99.99
71297;SHT31;59082;50.658;4.608;2022-10-16T18:16:23;15.46;99.99
71297;SHT31;59082;50.658;4.608;2022-10-16T18:18:49;15.43;99.99
71297;SHT31;59082;50.658;4.608;2022-10-16T18:21:18;15.40;99.99
71297;SHT31;59082;50.658;4.608;2022-10-16T18:23:44;15.45;99.99
71297;SHT31;59082;50.658;4.608;2022-10-16T18:26:12;15.42;99.99
71297;SHT31;59082;50.658;4.608;2022-10-16T18:28:38;15.43;99.99
71297;SHT31;59082;50.658;4.608;2022-10-16T18:31:06;15.43;99.99
71297;SHT31;59082;50.658;4.608;2022-10-16T18:33:34;15.45;99.99
71297;SHT31;59082;50.658;4.608;2022-10-16T18:36:02;15.49;99.99
71297;SHT31;59082;50.658;4.608;2022-10-16T18:38:28;15.49;99.99
71297;SHT31;59082;50.658;4.608;2022-10-16T18:40:55;15.49;99.99
71297;SHT31;59082;50.658;4.608;2022-10-16T18:43:22;15.49;99.99
71297;SHT31;59082;50.658;4.608;2022-10-16T18:45:57;15.52;99.99
71297;SHT31;59082;50.658;4.608;2022-10-16T18:48:23;15.53;99.99
71297;SHT31;59082;50.658;4.608;2022-10-16T18:50:52;15.53;99.99
71297;SHT31;59082;50.658;4.608;2022-10-16T18:53:20;15.46;99.99
71297;SHT31;59082;50.658;4.608;2022-10-16T18:55:52;15.49;99.99
71297;SHT31;59082;50.658;4.608;2022-10-16T18:58:18;15.50;99.99
71297;SHT31;59082;50.658;4.608;2022-10-16T19:00:44;15.46;99.99
71297;SHT31;59082;50.658;4.608;2022-10-16T19:03:10;15.45;99.99
71297;SHT31;59082;50.658;4.608;2022-10-16T19:05:35;15.45;99.99
71297;SHT31;59082;50.658;4.608;2022-10-16T19:08:01;15.45;99.99
71297;SHT31;59082;50.658;4.608;2022-10-16T19:10:26;15.47;99.99
71297;SHT31;59082;50.658;4.608;2022-10-16T19:12:52;15.49;99.99
71297;SHT31;59082;50.658;4.608;2022-10-16T19:15:17;15.52;99.99
71297;SHT31;59082;50.658;4.608;2022-10-16T19:17:43;15.50;99.99
71297;SHT31;59082;50.658;4.608;2022-10-16T19:20:08;15.47;99.99
71297;SHT31;59082;50.658;4.608;2022-10-16T19:22:34;15.43;99.99
71297;SHT31;59082;50.658;4.608;2022-10-16T19:25:26;15.49;99.99
71297;SHT31;59082;50.658;4.608;2022-10-16T19:27:52;15.47;99.99
71297;SHT31;59082;50.658;4.608;2022-10-16T19:30:19;15.45;99.99
71297;SHT31;59082;50.658;4.608;2022-10-16T19:32:45;15.45;99.99
71297;SHT31;59082;50.658;4.608;2022-10-16T19:35:11;15.42;99.99
71297;SHT31;59082;50.658;4.608;2022-10-16T19:37:37;15.45;99.99
71297;SHT31;59082;50.658;4.608;2022-10-16T19:40:03;15.42;99.99
71297;SHT31;59082;50.658;4.608;2022-10-16T19:42:30;15.43;99.99
71297;SHT31;59082;50.658;4.608;2022-10-16T19:44:55;15.47;99.99
71297;SHT31;59082;50.658;4.608;2022-10-16T19:47:21;15.52;99.99
71297;SHT31;59082;50.658;4.608;2022-10-16T19:49:49;15.52;99.99
71297;SHT31;59082;50.658;4.608;2022-10-16T19:52:18;15.47;99.99
71297;SHT31;59082;50.658;4.608;2022-10-16T19:54:46;15.39;99.99
71297;SHT31;59082;50.658;4.608;2022-10-16T19:57:12;15.28;99.99
71297;SHT31;59082;50.658;4.608;2022-10-16T19:59:38;15.21;99.99
71297;SHT31;59082;50.658;4.608;2022-10-16T20:02:07;15.15;99.99
71297;SHT31;59082;50.658;4.608;2022-10-16T20:04:32;15.09;99.99
71297;SHT31;59082;50.658;4.608;2022-10-16T20:06:58;15.01;99.99
71297;SHT31;59082;50.658;4.608;2022-10-16T20:09:33;14.95;99.99
71297;SHT31;59082;50.658;4.608;2022-10-16T20:12:00;14.91;99.99
71297;SHT31;59082;50.658;4.608;2022-10-16T20:14:26;14.84;99.99
71297;SHT31;59082;50.658;4.608;2022-10-16T20:16:52;14.84;99.99
71297;SHT31;59082;50.658;4.608;2022-10-16T20:19:18;14.78;99.99
71297;SHT31;59082;50.658;4.608;2022-10-16T20:21:44;14.78;99.99
71297;SHT31;59082;50.658;4.608;2022-10-16T20:24:09;14.80;99.99
71297;SHT31;59082;50.658;4.608;2022-10-16T20:26:35;14.76;99.99
71297;SHT31;59082;50.658;4.608;2022-10-16T20:29:02;14.68;99.99
71297;SHT31;59082;50.658;4.608;2022-10-16T20:31:29;14.67;99.99
71297;SHT31;59082;50.658;4.608;2022-10-16T20:33:56;14.61;99.99
71297;SHT31;59082;50.658;4.608;2022-10-16T20:36:24;14.63;99.99
71297;SHT31;59082;50.658;4.608;2022-10-16T20:38:50;14.63;99.99
71297;SHT31;59082;50.658;4.608;2022-10-16T20:41:17;14.63;99.99
71297;SHT31;59082;50.658;4.608;2022-10-16T20:43:44;14.61;99.99
71297;SHT31;59082;50.658;4.608;2022-10-16T20:46:12;14.60;99.99
71297;SHT31;59082;50.658;4.608;2022-10-16T20:48:39;14.60;99.99
71297;SHT31;59082;50.658;4.608;2022-10-16T20:51:22;14.55;99.99
71297;SHT31;59082;50.658;4.608;2022-10-16T20:53:54;14.51;99.99
71297;SHT31;59082;50.658;4.608;2022-10-16T20:56:22;14.59;99.99
71297;SHT31;59082;50.658;4.608;2022-10-16T20:58:49;14.57;99.99
71297;SHT31;59082;50.658;4.608;2022-10-16T21:01:18;14.59;99.99
71297;SHT31;59082;50.658;4.608;2022-10-16T21:03:49;14.67;99.99
71297;SHT31;59082;50.658;4.608;2022-10-16T21:06:15;14.67;99.99
71297;SHT31;59082;50.658;4.608;2022-10-16T21:08:41;14.66;99.99
71297;SHT31;59082;50.658;4.608;2022-10-16T21:13:37;14.57;99.99
71297;SHT31;59082;50.658;4.608;2022-10-16T21:16:03;14.56;99.99
71297;SHT31;59082;50.658;4.608;2022-10-16T21:18:28;14.56;99.99
71297;SHT31;59082;50.658;4.608;2022-10-16T21:20:54;14.47;99.99
71297;SHT31;59082;50.658;4.608;2022-10-16T21:23:19;14.40;99.99
71297;SHT31;59082;50.658;4.608;2022-10-16T21:25:49;14.39;99.99
71297;SHT31;59082;50.658;4.608;2022-10-16T21:28:15;14.30;99.99
71297;SHT31;59082;50.658;4.608;2022-10-16T21:30:41;14.28;99.99
71297;SHT31;59082;50.658;4.608;2022-10-16T21:33:06;14.22;99.99
71297;SHT31;59082;50.658;4.608;2022-10-16T21:35:32;14.20;99.99
71297;SHT31;59082;50.658;4.608;2022-10-16T21:37:57;14.18;99.99
71297;SHT31;59082;50.658;4.608;2022-10-16T21:40:23;14.15;99.99
71297;SHT31;59082;50.658;4.608;2022-10-16T21:42:48;14.16;99.99
71297;SHT31;59082;50.658;4.608;2022-10-16T21:45:14;14.18;99.99
71297;SHT31;59082;50.658;4.608;2022-10-16T21:47:39;14.20;99.99
71297;SHT31;59082;50.658;4.608;2022-10-16T21:50:06;14.22;99.99
71297;SHT31;59082;50.658;4.608;2022-10-16T21:52:32;14.18;99.99
71297;SHT31;59082;50.658;4.608;2022-10-16T21:54:57;14.22;99.99
71297;SHT31;59082;50.658;4.608;2022-10-16T21:57:23;14.34;99.99
71297;SHT31;59082;50.658;4.608;2022-10-16T21:59:48;14.28;99.99
71297;SHT31;59082;50.658;4.608;2022-10-16T22:02:14;14.29;99.99
71297;SHT31;59082;50.658;4.608;2022-10-16T22:04:40;14.25;99.99
71297;SHT31;59082;50.658;4.608;2022-10-16T22:07:05;14.22;99.99
71297;SHT31;59082;50.658;4.608;2022-10-16T22:09:31;14.25;99.99
71297;SHT31;59082;50.658;4.608;2022-10-16T22:11:57;14.25;99.99
71297;SHT31;59082;50.658;4.608;2022-10-16T22:14:23;14.28;99.99
71297;SHT31;59082;50.658;4.608;2022-10-16T22:16:49;14.25;99.99
71297;SHT31;59082;50.658;4.608;2022-10-16T22:19:17;14.23;99.99
71297;SHT31;59082;50.658;4.608;2022-10-16T22:21:44;14.25;99.99
71297;SHT31;59082;50.658;4.608;2022-10-16T22:24:11;14.23;99.99
71297;SHT31;59082;50.658;4.608;2022-10-16T22:26:37;14.25;99.99
71297;SHT31;59082;50.658;4.608;2022-10-16T22:29:04;14.23;99.99
71297;SHT31;59082;50.658;4.608;2022-10-16T22:31:30;14.23;99.99
71297;SHT31;59082;50.658;4.608;2022-10-16T22:34:01;14.20;99.99
71297;SHT31;59082;50.658;4.608;2022-10-16T22:36:27;14.22;99.99
71297;SHT31;59082;50.658;4.608;2022-10-16T22:38:53;14.22;99.99
71297;SHT31;59082;50.658;4.608;2022-10-16T22:41:20;14.22;99.99
71297;SHT31;59082;50.658;4.608;2022-10-16T22:43:47;14.26;99.99
71297;SHT31;59082;50.658;4.608;2022-10-16T22:46:27;14.22;99.99
71297;SHT31;59082;50.658;4.608;2022-10-16T22:48:54;14.22;99.99
71297;SHT31;59082;50.658;4.608;2022-10-16T22:51:19;14.22;99.99
71297;SHT31;59082;50.658;4.608;2022-10-16T22:53:47;14.22;99.99
71297;SHT31;59082;50.658;4.608;2022-10-16T22:56:14;14.22;99.99
71297;SHT31;59082;50.658;4.608;2022-10-16T22:58:39;14.25;99.99
71297;SHT31;59082;50.658;4.608;2022-10-16T23:01:21;14.29;99.99
71297;SHT31;59082;50.658;4.608;2022-10-16T23:03:47;14.29;99.99
71297;SHT31;59082;50.658;4.608;2022-10-16T23:06:13;14.33;99.99
71297;SHT31;59082;50.658;4.608;2022-10-16T23:08:40;14.32;99.99
71297;SHT31;59082;50.658;4.608;2022-10-16T23:11:10;14.25;99.99
71297;SHT31;59082;50.658;4.608;2022-10-16T23:13:36;14.25;99.99
71297;SHT31;59082;50.658;4.608;2022-10-16T23:16:03;14.22;99.99
71297;SHT31;59082;50.658;4.608;2022-10-16T23:18:29;14.26;99.99
71297;SHT31;59082;50.658;4.608;2022-10-16T23:20:55;14.25;99.99
71297;SHT31;59082;50.658;4.608;2022-10-16T23:23:20;14.25;99.99
71297;SHT31;59082;50.658;4.608;2022-10-16T23:25:46;14.23;99.99
71297;SHT31;59082;50.658;4.608;2022-10-16T23:28:12;14.29;99.99
71297;SHT31;59082;50.658;4.608;2022-10-16T23:30:38;14.28;99.99
71297;SHT31;59082;50.658;4.608;2022-10-16T23:33:04;14.34;99.99
71297;SHT31;59082;50.658;4.608;2022-10-16T23:35:29;14.41;99.99
71297;SHT31;59082;50.658;4.608;2022-10-16T23:37:55;14.43;99.99
71297;SHT31;59082;50.658;4.608;2022-10-16T23:40:22;14.46;99.99
71297;SHT31;59082;50.658;4.608;2022-10-16T23:42:48;14.41;99.99
71297;SHT31;59082;50.658;4.608;2022-10-16T23:45:14;14.39;99.99
71297;SHT31;59082;50.658;4.608;2022-10-16T23:47:40;14.39;99.99
71297;SHT31;59082;50.658;4.608;2022-10-16T23:50:07;14.41;99.99
71297;SHT31;59082;50.658;4.608;2022-10-16T23:52:33;14.37;99.99
71297;SHT31;59082;50.658;4.608;2022-10-16T23:54:58;14.46;99.99
71297;SHT31;59082;50.658;4.608;2022-10-16T23:57:24;14.46;99.99
71297;SHT31;59082;50.658;4.608;2022-10-16T23:59:49;14.41;99.99
